sensor_id;sensor_type;location;lat;lon;timestamp;temperature;humidity
45137;DHT22;30894;51.740;19.498;2023-07-20T00:02:08;16.40;54.40
45137;DHT22;30894;51.740;19.498;2023-07-20T00:04:34;16.40;54.30
45137;DHT22;30894;51.740;19.498;2023-07-20T00:07:00;16.50;54.30
45137;DHT22;30894;51.740;19.498;2023-07-20T00:09:30;16.50;54.20
45137;DHT22;30894;51.740;19.498;2023-07-20T00:11:56;16.50;54.30
45137;DHT22;30894;51.740;19.498;2023-07-20T00:14:23;16.50;54.20
45137;DHT22;30894;51.740;19.498;2023-07-20T00:16:50;16.50;54.20
45137;DHT22;30894;51.740;19.498;2023-07-20T00:19:27;16.50;54.20
45137;DHT22;30894;51.740;19.498;2023-07-20T00:21:54;16.50;54.30
45137;DHT22;30894;51.740;19.498;2023-07-20T00:24:20;16.40;54.30
45137;DHT22;30894;51.740;19.498;2023-07-20T00:26:47;16.40;54.40
45137;DHT22;30894;51.740;19.498;2023-07-20T00:29:13;16.40;54.50
45137;DHT22;30894;51.740;19.498;2023-07-20T00:31:42;16.40;54.60
45137;DHT22;30894;51.740;19.498;2023-07-20T00:34:09;16.40;54.60
45137;DHT22;30894;51.740;19.498;2023-07-20T00:36:35;16.30;54.60
45137;DHT22;30894;51.740;19.498;2023-07-20T00:39:01;16.40;54.60
45137;DHT22;30894;51.740;19.498;2023-07-20T00:41:29;16.40;54.60
45137;DHT22;30894;51.740;19.498;2023-07-20T00:43:55;16.50;54.60
45137;DHT22;30894;51.740;19.498;2023-07-20T00:46:25;16.50;54.60
45137;DHT22;30894;51.740;19.498;2023-07-20T00:48:52;16.50;54.70
45137;DHT22;30894;51.740;19.498;2023-07-20T00:51:21;16.50;54.50
45137;DHT22;30894;51.740;19.498;2023-07-20T00:53:47;16.50;54.60
45137;DHT22;30894;51.740;19.498;2023-07-20T00:56:13;16.50;54.60
45137;DHT22;30894;51.740;19.498;2023-07-20T00:58:40;16.50;54.70
45137;DHT22;30894;51.740;19.498;2023-07-20T01:01:07;16.50;54.80
45137;DHT22;30894;51.740;19.498;2023-07-20T01:03:33;16.40;55.00
45137;DHT22;30894;51.740;19.498;2023-07-20T01:06:29;16.40;55.10
45137;DHT22;30894;51.740;19.498;2023-07-20T01:09:12;16.40;55.30
45137;DHT22;30894;51.740;19.498;2023-07-20T01:14:27;16.40;55.20
45137;DHT22;30894;51.740;19.498;2023-07-20T01:16:53;16.40;55.20
45137;DHT22;30894;51.740;19.498;2023-07-20T01:19:19;16.20;55.40
45137;DHT22;30894;51.740;19.498;2023-07-20T01:24:39;15.90;56.00
45137;DHT22;30894;51.740;19.498;2023-07-20T01:33:12;15.50;56.80
45137;DHT22;30894;51.740;19.498;2023-07-20T01:35:41;15.40;57.00
45137;DHT22;30894;51.740;19.498;2023-07-20T01:38:10;15.30;57.20
45137;DHT22;30894;51.740;19.498;2023-07-20T01:40:37;15.20;57.50
45137;DHT22;30894;51.740;19.498;2023-07-20T01:43:04;15.10;57.70
45137;DHT22;30894;51.740;19.498;2023-07-20T01:45:30;15.10;57.80
45137;DHT22;30894;51.740;19.498;2023-07-20T01:47:57;15.00;57.90
45137;DHT22;30894;51.740;19.498;2023-07-20T01:50:23;15.00;58.10
45137;DHT22;30894;51.740;19.498;2023-07-20T01:52:49;14.90;58.10
45137;DHT22;30894;51.740;19.498;2023-07-20T01:55:16;14.90;58.30
45137;DHT22;30894;51.740;19.498;2023-07-20T01:57:42;14.80;58.30
45137;DHT22;30894;51.740;19.498;2023-07-20T02:00:09;14.80;58.50
45137;DHT22;30894;51.740;19.498;2023-07-20T02:02:41;14.70;58.50
45137;DHT22;30894;51.740;19.498;2023-07-20T02:05:08;14.70;58.70
45137;DHT22;30894;51.740;19.498;2023-07-20T02:07:35;14.70;58.60
45137;DHT22;30894;51.740;19.498;2023-07-20T02:10:01;14.60;58.60
45137;DHT22;30894;51.740;19.498;2023-07-20T02:12:27;14.60;58.70
45137;DHT22;30894;51.740;19.498;2023-07-20T02:14:53;14.50;58.70
45137;DHT22;30894;51.740;19.498;2023-07-20T02:17:22;14.50;58.80
45137;DHT22;30894;51.740;19.498;2023-07-20T02:19:53;14.50;58.90
45137;DHT22;30894;51.740;19.498;2023-07-20T02:22:21;14.40;59.00
45137;DHT22;30894;51.740;19.498;2023-07-20T02:24:47;14.40;59.10
45137;DHT22;30894;51.740;19.498;2023-07-20T02:27:14;14.30;59.20
45137;DHT22;30894;51.740;19.498;2023-07-20T02:29:41;14.40;59.30
45137;DHT22;30894;51.740;19.498;2023-07-20T02:32:09;14.40;59.40
45137;DHT22;30894;51.740;19.498;2023-07-20T02:34:36;14.30;59.40
45137;DHT22;30894;51.740;19.498;2023-07-20T02:37:03;14.30;59.40
45137;DHT22;30894;51.740;19.498;2023-07-20T02:39:30;14.30;59.50
45137;DHT22;30894;51.740;19.498;2023-07-20T02:41:57;14.30;59.60
45137;DHT22;30894;51.740;19.498;2023-07-20T02:44:23;14.20;59.60
45137;DHT22;30894;51.740;19.498;2023-07-20T02:46:49;14.20;59.80
45137;DHT22;30894;51.740;19.498;2023-07-20T02:49:16;14.10;59.90
45137;DHT22;30894;51.740;19.498;2023-07-20T02:51:43;14.10;60.10
45137;DHT22;30894;51.740;19.498;2023-07-20T02:54:12;14.10;60.30
45137;DHT22;30894;51.740;19.498;2023-07-20T02:56:39;14.00;60.50
45137;DHT22;30894;51.740;19.498;2023-07-20T02:59:05;14.10;60.70
45137;DHT22;30894;51.740;19.498;2023-07-20T03:01:32;14.00;60.80
45137;DHT22;30894;51.740;19.498;2023-07-20T03:03:58;13.90;61.00
45137;DHT22;30894;51.740;19.498;2023-07-20T03:06:32;13.90;61.10
45137;DHT22;30894;51.740;19.498;2023-07-20T03:09:01;13.80;61.20
45137;DHT22;30894;51.740;19.498;2023-07-20T03:11:31;13.80;61.40
45137;DHT22;30894;51.740;19.498;2023-07-20T03:14:01;13.80;61.60
45137;DHT22;30894;51.740;19.498;2023-07-20T03:16:29;13.80;61.80
45137;DHT22;30894;51.740;19.498;2023-07-20T03:18:59;13.80;62.10
45137;DHT22;30894;51.740;19.498;2023-07-20T03:21:26;13.80;62.30
45137;DHT22;30894;51.740;19.498;2023-07-20T03:23:55;13.80;62.70
45137;DHT22;30894;51.740;19.498;2023-07-20T03:26:22;13.90;63.20
45137;DHT22;30894;51.740;19.498;2023-07-20T03:28:49;13.80;63.30
45137;DHT22;30894;51.740;19.498;2023-07-20T03:31:15;13.70;63.60
45137;DHT22;30894;51.740;19.498;2023-07-20T03:33:41;13.70;63.80
45137;DHT22;30894;51.740;19.498;2023-07-20T03:36:09;13.70;64.10
45137;DHT22;30894;51.740;19.498;2023-07-20T03:38:44;13.70;64.30
45137;DHT22;30894;51.740;19.498;2023-07-20T03:41:11;13.70;64.70
45137;DHT22;30894;51.740;19.498;2023-07-20T03:43:42;13.70;64.80
45137;DHT22;30894;51.740;19.498;2023-07-20T03:46:09;13.70;65.60
45137;DHT22;30894;51.740;19.498;2023-07-20T03:48:35;13.70;65.10
45137;DHT22;30894;51.740;19.498;2023-07-20T03:51:02;13.70;65.30
45137;DHT22;30894;51.740;19.498;2023-07-20T03:53:29;13.70;65.70
45137;DHT22;30894;51.740;19.498;2023-07-20T03:55:56;13.70;65.90
45137;DHT22;30894;51.740;19.498;2023-07-20T03:58:22;13.70;66.00
45137;DHT22;30894;51.740;19.498;2023-07-20T04:00:50;13.80;66.30
45137;DHT22;30894;51.740;19.498;2023-07-20T04:03:20;13.80;66.60
45137;DHT22;30894;51.740;19.498;2023-07-20T04:05:49;13.80;66.60
45137;DHT22;30894;51.740;19.498;2023-07-20T04:08:15;13.80;66.70
45137;DHT22;30894;51.740;19.498;2023-07-20T04:10:45;13.90;66.90
45137;DHT22;30894;51.740;19.498;2023-07-20T04:13:12;13.90;67.00
45137;DHT22;30894;51.740;19.498;2023-07-20T04:15:39;13.90;67.10
45137;DHT22;30894;51.740;19.498;2023-07-20T04:18:05;14.00;67.20
45137;DHT22;30894;51.740;19.498;2023-07-20T04:20:31;14.00;67.30
45137;DHT22;30894;51.740;19.498;2023-07-20T04:22:57;14.00;67.50
45137;DHT22;30894;51.740;19.498;2023-07-20T04:25:24;14.00;67.60
45137;DHT22;30894;51.740;19.498;2023-07-20T04:27:51;14.00;67.70
45137;DHT22;30894;51.740;19.498;2023-07-20T04:30:21;14.10;67.90
45137;DHT22;30894;51.740;19.498;2023-07-20T04:32:49;14.10;68.00
45137;DHT22;30894;51.740;19.498;2023-07-20T04:38:15;14.10;68.30
45137;DHT22;30894;51.740;19.498;2023-07-20T04:40:48;14.20;68.50
45137;DHT22;30894;51.740;19.498;2023-07-20T04:43:17;14.30;68.60
45137;DHT22;30894;51.740;19.498;2023-07-20T04:45:45;14.30;68.60
45137;DHT22;30894;51.740;19.498;2023-07-20T04:48:13;14.40;68.70
45137;DHT22;30894;51.740;19.498;2023-07-20T04:50:42;14.50;68.80
45137;DHT22;30894;51.740;19.498;2023-07-20T04:53:12;14.50;68.80
45137;DHT22;30894;51.740;19.498;2023-07-20T04:55:40;14.60;69.00
45137;DHT22;30894;51.740;19.498;2023-07-20T04:58:12;14.60;69.10
45137;DHT22;30894;51.740;19.498;2023-07-20T05:00:39;14.70;69.20
45137;DHT22;30894;51.740;19.498;2023-07-20T05:03:05;14.80;69.20
45137;DHT22;30894;51.740;19.498;2023-07-20T05:05:32;15.00;69.10
45137;DHT22;30894;51.740;19.498;2023-07-20T05:07:59;15.10;69.20
45137;DHT22;30894;51.740;19.498;2023-07-20T05:10:26;15.20;69.00
45137;DHT22;30894;51.740;19.498;2023-07-20T05:12:53;15.30;69.20
45137;DHT22;30894;51.740;19.498;2023-07-20T05:15:20;15.40;69.40
45137;DHT22;30894;51.740;19.498;2023-07-20T05:17:46;15.50;69.30
45137;DHT22;30894;51.740;19.498;2023-07-20T05:20:14;15.60;69.30
45137;DHT22;30894;51.740;19.498;2023-07-20T05:22:41;15.70;69.40
45137;DHT22;30894;51.740;19.498;2023-07-20T05:25:08;15.80;69.50
45137;DHT22;30894;51.740;19.498;2023-07-20T05:27:39;15.90;69.60
45137;DHT22;30894;51.740;19.498;2023-07-20T05:30:06;16.10;69.60
45137;DHT22;30894;51.740;19.498;2023-07-20T05:32:35;16.30;69.70
45137;DHT22;30894;51.740;19.498;2023-07-20T05:35:02;16.30;69.50
45137;DHT22;30894;51.740;19.498;2023-07-20T05:37:28;16.50;69.50
45137;DHT22;30894;51.740;19.498;2023-07-20T05:39:55;16.70;69.60
45137;DHT22;30894;51.740;19.498;2023-07-20T05:42:21;16.80;69.50
45137;DHT22;30894;51.740;19.498;2023-07-20T05:44:48;16.70;69.50
45137;DHT22;30894;51.740;19.498;2023-07-20T05:47:15;16.80;69.70
45137;DHT22;30894;51.740;19.498;2023-07-20T05:49:42;16.70;69.90
45137;DHT22;30894;51.740;19.498;2023-07-20T05:52:08;16.70;70.30
45137;DHT22;30894;51.740;19.498;2023-07-20T05:54:35;16.60;70.60
45137;DHT22;30894;51.740;19.498;2023-07-20T05:57:02;16.50;70.90
45137;DHT22;30894;51.740;19.498;2023-07-20T05:59:31;16.40;71.10
45137;DHT22;30894;51.740;19.498;2023-07-20T06:02:08;16.40;71.50
45137;DHT22;30894;51.740;19.498;2023-07-20T06:05:33;16.50;71.60
45137;DHT22;30894;51.740;19.498;2023-07-20T06:07:59;16.50;71.80
45137;DHT22;30894;51.740;19.498;2023-07-20T06:10:27;16.40;72.00
45137;DHT22;30894;51.740;19.498;2023-07-20T06:12:54;16.40;72.20
45137;DHT22;30894;51.740;19.498;2023-07-20T06:15:48;16.50;72.30
45137;DHT22;30894;51.740;19.498;2023-07-20T06:18:16;16.60;72.30
45137;DHT22;30894;51.740;19.498;2023-07-20T06:20:42;16.60;72.40
45137;DHT22;30894;51.740;19.498;2023-07-20T06:23:15;16.70;72.50
45137;DHT22;30894;51.740;19.498;2023-07-20T06:25:41;16.80;72.50
45137;DHT22;30894;51.740;19.498;2023-07-20T06:28:11;16.90;72.30
45137;DHT22;30894;51.740;19.498;2023-07-20T06:30:39;16.90;72.40
45137;DHT22;30894;51.740;19.498;2023-07-20T06:33:06;16.80;72.50
45137;DHT22;30894;51.740;19.498;2023-07-20T06:35:34;16.90;72.70
45137;DHT22;30894;51.740;19.498;2023-07-20T06:38:02;16.90;72.90
45137;DHT22;30894;51.740;19.498;2023-07-20T06:40:31;16.90;73.10
45137;DHT22;30894;51.740;19.498;2023-07-20T06:42:58;16.90;73.30
45137;DHT22;30894;51.740;19.498;2023-07-20T06:45:23;16.90;73.60
45137;DHT22;30894;51.740;19.498;2023-07-20T06:47:50;16.80;73.80
45137;DHT22;30894;51.740;19.498;2023-07-20T06:50:16;16.70;74.20
45137;DHT22;30894;51.740;19.498;2023-07-20T06:52:42;16.60;74.60
45137;DHT22;30894;51.740;19.498;2023-07-20T06:55:08;16.40;75.00
45137;DHT22;30894;51.740;19.498;2023-07-20T06:57:35;16.30;75.30
45137;DHT22;30894;51.740;19.498;2023-07-20T07:00:03;16.20;75.70
45137;DHT22;30894;51.740;19.498;2023-07-20T07:02:30;16.20;76.00
45137;DHT22;30894;51.740;19.498;2023-07-20T07:04:56;16.20;76.20
45137;DHT22;30894;51.740;19.498;2023-07-20T07:07:23;16.10;76.40
45137;DHT22;30894;51.740;19.498;2023-07-20T07:09:49;16.10;76.60
45137;DHT22;30894;51.740;19.498;2023-07-20T07:12:18;16.20;76.70
45137;DHT22;30894;51.740;19.498;2023-07-20T07:14:44;16.20;76.80
45137;DHT22;30894;51.740;19.498;2023-07-20T07:17:10;16.30;76.80
45137;DHT22;30894;51.740;19.498;2023-07-20T07:19:37;16.50;76.60
45137;DHT22;30894;51.740;19.498;2023-07-20T07:22:04;16.70;76.30
45137;DHT22;30894;51.740;19.498;2023-07-20T07:24:31;16.90;75.90
45137;DHT22;30894;51.740;19.498;2023-07-20T07:27:01;17.30;75.50
45137;DHT22;30894;51.740;19.498;2023-07-20T07:29:27;17.70;75.00
45137;DHT22;30894;51.740;19.498;2023-07-20T07:31:54;18.10;74.50
45137;DHT22;30894;51.740;19.498;2023-07-20T07:34:20;18.40;73.90
45137;DHT22;30894;51.740;19.498;2023-07-20T07:36:47;18.80;73.60
45137;DHT22;30894;51.740;19.498;2023-07-20T07:39:13;19.00;73.40
45137;DHT22;30894;51.740;19.498;2023-07-20T07:41:39;19.00;73.50
45137;DHT22;30894;51.740;19.498;2023-07-20T07:44:05;19.10;73.70
45137;DHT22;30894;51.740;19.498;2023-07-20T07:46:32;19.20;73.70
45137;DHT22;30894;51.740;19.498;2023-07-20T07:48:58;19.50;73.50
45137;DHT22;30894;51.740;19.498;2023-07-20T07:51:24;19.90;73.10
45137;DHT22;30894;51.740;19.498;2023-07-20T07:53:50;20.50;72.60
45137;DHT22;30894;51.740;19.498;2023-07-20T07:56:17;21.20;71.70
45137;DHT22;30894;51.740;19.498;2023-07-20T07:58:43;21.70;71.20
45137;DHT22;30894;51.740;19.498;2023-07-20T08:01:10;22.70;69.80
45137;DHT22;30894;51.740;19.498;2023-07-20T08:03:36;23.00;69.00
45137;DHT22;30894;51.740;19.498;2023-07-20T08:06:03;23.20;69.20
45137;DHT22;30894;51.740;19.498;2023-07-20T08:08:32;23.50;69.10
45137;DHT22;30894;51.740;19.498;2023-07-20T08:10:58;23.90;68.80
45137;DHT22;30894;51.740;19.498;2023-07-20T08:13:25;24.40;68.70
45137;DHT22;30894;51.740;19.498;2023-07-20T08:15:53;24.50;68.90
45137;DHT22;30894;51.740;19.498;2023-07-20T08:18:20;25.10;68.60
45137;DHT22;30894;51.740;19.498;2023-07-20T08:20:48;25.70;68.10
45137;DHT22;30894;51.740;19.498;2023-07-20T08:23:15;26.30;67.60
45137;DHT22;30894;51.740;19.498;2023-07-20T08:25:41;26.90;66.80
45137;DHT22;30894;51.740;19.498;2023-07-20T08:28:14;27.50;66.30
45137;DHT22;30894;51.740;19.498;2023-07-20T08:30:48;27.80;66.10
45137;DHT22;30894;51.740;19.498;2023-07-20T08:33:16;28.10;66.10
45137;DHT22;30894;51.740;19.498;2023-07-20T08:35:47;28.50;65.90
45137;DHT22;30894;51.740;19.498;2023-07-20T08:38:13;28.10;66.70
45137;DHT22;30894;51.740;19.498;2023-07-20T08:40:41;27.40;68.30
45137;DHT22;30894;51.740;19.498;2023-07-20T08:43:12;27.30;69.10
45137;DHT22;30894;51.740;19.498;2023-07-20T08:45:40;27.90;68.90
45137;DHT22;30894;51.740;19.498;2023-07-20T08:48:07;28.40;67.70
45137;DHT22;30894;51.740;19.498;2023-07-20T08:50:34;28.30;67.80
45137;DHT22;30894;51.740;19.498;2023-07-20T08:53:01;28.50;68.00
45137;DHT22;30894;51.740;19.498;2023-07-20T08:55:29;29.00;67.60
45137;DHT22;30894;51.740;19.498;2023-07-20T08:57:57;29.70;66.50
45137;DHT22;30894;51.740;19.498;2023-07-20T09:00:25;30.50;66.10
45137;DHT22;30894;51.740;19.498;2023-07-20T09:02:53;31.50;64.00
45137;DHT22;30894;51.740;19.498;2023-07-20T09:05:21;32.20;62.70
45137;DHT22;30894;51.740;19.498;2023-07-20T09:07:48;31.80;62.90
45137;DHT22;30894;51.740;19.498;2023-07-20T09:10:15;30.80;64.00
45137;DHT22;30894;51.740;19.498;2023-07-20T09:12:43;29.80;65.60
45137;DHT22;30894;51.740;19.498;2023-07-20T09:15:11;29.00;67.10
45137;DHT22;30894;51.740;19.498;2023-07-20T09:17:37;28.20;68.30
45137;DHT22;30894;51.740;19.498;2023-07-20T09:20:05;27.70;69.50
45137;DHT22;30894;51.740;19.498;2023-07-20T09:22:42;27.30;70.10
45137;DHT22;30894;51.740;19.498;2023-07-20T09:25:17;27.50;70.00
45137;DHT22;30894;51.740;19.498;2023-07-20T09:27:47;27.60;69.00
45137;DHT22;30894;51.740;19.498;2023-07-20T09:30:15;28.20;67.90
45137;DHT22;30894;51.740;19.498;2023-07-20T09:32:49;28.50;67.30
45137;DHT22;30894;51.740;19.498;2023-07-20T09:35:18;28.80;66.60
45137;DHT22;30894;51.740;19.498;2023-07-20T09:40:28;29.00;66.00
45137;DHT22;30894;51.740;19.498;2023-07-20T09:42:55;28.90;65.90
45137;DHT22;30894;51.740;19.498;2023-07-20T09:45:32;28.90;65.60
45137;DHT22;30894;51.740;19.498;2023-07-20T09:48:06;28.90;65.40
45137;DHT22;30894;51.740;19.498;2023-07-20T09:50:33;29.20;64.50
45137;DHT22;30894;51.740;19.498;2023-07-20T09:53:01;29.60;63.80
45137;DHT22;30894;51.740;19.498;2023-07-20T09:55:30;31.40;61.30
45137;DHT22;30894;51.740;19.498;2023-07-20T09:57:57;33.60;58.30
45137;DHT22;30894;51.740;19.498;2023-07-20T10:00:24;33.90;56.70
45137;DHT22;30894;51.740;19.498;2023-07-20T10:02:51;33.40;57.00
45137;DHT22;30894;51.740;19.498;2023-07-20T10:05:19;32.50;57.80
45137;DHT22;30894;51.740;19.498;2023-07-20T10:07:48;31.40;59.20
45137;DHT22;30894;51.740;19.498;2023-07-20T10:10:17;30.50;60.50
45137;DHT22;30894;51.740;19.498;2023-07-20T10:12:47;30.20;60.70
45137;DHT22;30894;51.740;19.498;2023-07-20T10:15:24;30.00;61.00
45137;DHT22;30894;51.740;19.498;2023-07-20T10:18:09;29.20;61.80
45137;DHT22;30894;51.740;19.498;2023-07-20T10:20:40;28.50;62.80
45137;DHT22;30894;51.740;19.498;2023-07-20T10:23:09;28.00;63.50
45137;DHT22;30894;51.740;19.498;2023-07-20T10:25:37;28.70;62.50
45137;DHT22;30894;51.740;19.498;2023-07-20T10:28:07;30.20;60.20
45137;DHT22;30894;51.740;19.498;2023-07-20T10:30:34;31.80;57.90
45137;DHT22;30894;51.740;19.498;2023-07-20T10:33:02;33.00;55.80
45137;DHT22;30894;51.740;19.498;2023-07-20T10:35:30;33.60;54.70
45137;DHT22;30894;51.740;19.498;2023-07-20T10:38:01;34.20;53.80
45137;DHT22;30894;51.740;19.498;2023-07-20T10:40:34;34.40;53.10
45137;DHT22;30894;51.740;19.498;2023-07-20T10:43:05;33.80;53.70
45137;DHT22;30894;51.740;19.498;2023-07-20T10:45:34;32.80;54.60
45137;DHT22;30894;51.740;19.498;2023-07-20T10:50:46;31.50;56.20
45137;DHT22;30894;51.740;19.498;2023-07-20T10:53:32;30.20;57.30
45137;DHT22;30894;51.740;19.498;2023-07-20T10:56:14;27.90;59.90
45137;DHT22;30894;51.740;19.498;2023-07-20T10:58:41;26.80;62.00
45137;DHT22;30894;51.740;19.498;2023-07-20T11:01:08;25.80;63.90
45137;DHT22;30894;51.740;19.498;2023-07-20T11:03:37;25.20;65.10
45137;DHT22;30894;51.740;19.498;2023-07-20T11:09:10;24.20;66.80
45137;DHT22;30894;51.740;19.498;2023-07-20T11:11:38;23.90;67.60
45137;DHT22;30894;51.740;19.498;2023-07-20T11:14:10;23.80;68.20
45137;DHT22;30894;51.740;19.498;2023-07-20T11:16:48;23.70;68.10
45137;DHT22;30894;51.740;19.498;2023-07-20T11:21:54;24.20;67.20
45137;DHT22;30894;51.740;19.498;2023-07-20T11:24:21;23.70;67.90
45137;DHT22;30894;51.740;19.498;2023-07-20T11:26:51;23.20;68.70
45137;DHT22;30894;51.740;19.498;2023-07-20T11:29:20;23.00;69.30
45137;DHT22;30894;51.740;19.498;2023-07-20T11:31:49;22.80;69.80
45137;DHT22;30894;51.740;19.498;2023-07-20T11:34:20;22.30;70.30
45137;DHT22;30894;51.740;19.498;2023-07-20T11:36:51;21.70;71.10
45137;DHT22;30894;51.740;19.498;2023-07-20T11:39:19;20.60;72.50
45137;DHT22;30894;51.740;19.498;2023-07-20T11:41:52;19.80;73.90
45137;DHT22;30894;51.740;19.498;2023-07-20T11:44:20;19.10;75.10
45137;DHT22;30894;51.740;19.498;2023-07-20T11:49:37;17.90;77.30
45137;DHT22;30894;51.740;19.498;2023-07-20T11:52:15;17.50;78.10
45137;DHT22;30894;51.740;19.498;2023-07-20T11:54:42;17.10;78.80
45137;DHT22;30894;51.740;19.498;2023-07-20T11:57:19;16.90;79.30
45137;DHT22;30894;51.740;19.498;2023-07-20T12:00:02;16.80;79.70
45137;DHT22;30894;51.740;19.498;2023-07-20T12:02:38;17.00;80.00
45137;DHT22;30894;51.740;19.498;2023-07-20T12:05:05;17.60;78.90
45137;DHT22;30894;51.740;19.498;2023-07-20T12:07:35;18.00;77.90
45137;DHT22;30894;51.740;19.498;2023-07-20T12:10:10;18.20;77.20
45137;DHT22;30894;51.740;19.498;2023-07-20T12:12:41;19.00;76.30
45137;DHT22;30894;51.740;19.498;2023-07-20T12:18:06;21.30;71.50
45137;DHT22;30894;51.740;19.498;2023-07-20T12:20:37;22.20;69.50
45137;DHT22;30894;51.740;19.498;2023-07-20T12:23:08;23.00;68.40
45137;DHT22;30894;51.740;19.498;2023-07-20T12:25:45;23.70;67.20
45137;DHT22;30894;51.740;19.498;2023-07-20T12:28:17;24.30;66.50
45137;DHT22;30894;51.740;19.498;2023-07-20T12:30:45;24.00;66.80
45137;DHT22;30894;51.740;19.498;2023-07-20T12:33:12;23.50;67.90
45137;DHT22;30894;51.740;19.498;2023-07-20T12:35:41;23.20;69.00
45137;DHT22;30894;51.740;19.498;2023-07-20T12:38:09;23.50;69.50
45137;DHT22;30894;51.740;19.498;2023-07-20T12:40:35;23.40;69.50
45137;DHT22;30894;51.740;19.498;2023-07-20T12:43:03;23.70;70.00
45137;DHT22;30894;51.740;19.498;2023-07-20T12:45:36;24.70;68.60
45137;DHT22;30894;51.740;19.498;2023-07-20T12:48:02;25.40;67.80
45137;DHT22;30894;51.740;19.498;2023-07-20T12:50:29;26.00;67.10
45137;DHT22;30894;51.740;19.498;2023-07-20T12:52:58;25.90;67.10
45137;DHT22;30894;51.740;19.498;2023-07-20T12:55:25;26.10;67.50
45137;DHT22;30894;51.740;19.498;2023-07-20T12:57:52;26.60;67.10
45137;DHT22;30894;51.740;19.498;2023-07-20T13:00:21;27.50;66.10
45137;DHT22;30894;51.740;19.498;2023-07-20T13:02:51;27.80;65.60
45137;DHT22;30894;51.740;19.498;2023-07-20T13:05:17;26.80;67.00
45137;DHT22;30894;51.740;19.498;2023-07-20T13:07:44;25.80;68.80
45137;DHT22;30894;51.740;19.498;2023-07-20T13:10:12;24.80;70.60
45137;DHT22;30894;51.740;19.498;2023-07-20T13:12:38;23.70;72.40
45137;DHT22;30894;51.740;19.498;2023-07-20T13:15:06;22.70;74.30
45137;DHT22;30894;51.740;19.498;2023-07-20T13:17:37;21.90;76.00
45137;DHT22;30894;51.740;19.498;2023-07-20T13:20:08;20.90;77.80
45137;DHT22;30894;51.740;19.498;2023-07-20T13:22:40;20.20;79.70
45137;DHT22;30894;51.740;19.498;2023-07-20T13:25:09;19.60;81.00
45137;DHT22;30894;51.740;19.498;2023-07-20T13:27:38;19.10;82.40
45137;DHT22;30894;51.740;19.498;2023-07-20T13:30:04;18.70;83.50
45137;DHT22;30894;51.740;19.498;2023-07-20T13:32:34;18.50;84.60
45137;DHT22;30894;51.740;19.498;2023-07-20T13:35:00;18.80;85.40
45137;DHT22;30894;51.740;19.498;2023-07-20T13:37:26;19.90;84.10
45137;DHT22;30894;51.740;19.498;2023-07-20T13:39:52;21.20;80.80
45137;DHT22;30894;51.740;19.498;2023-07-20T13:42:19;22.40;77.90
45137;DHT22;30894;51.740;19.498;2023-07-20T13:44:46;23.40;75.40
45137;DHT22;30894;51.740;19.498;2023-07-20T13:47:14;24.10;73.80
45137;DHT22;30894;51.740;19.498;2023-07-20T13:49:40;25.00;72.50
45137;DHT22;30894;51.740;19.498;2023-07-20T13:52:07;25.70;70.90
45137;DHT22;30894;51.740;19.498;2023-07-20T13:54:34;26.30;69.80
45137;DHT22;30894;51.740;19.498;2023-07-20T13:57:03;26.70;69.10
45137;DHT22;30894;51.740;19.498;2023-07-20T13:59:31;26.80;69.10
45137;DHT22;30894;51.740;19.498;2023-07-20T14:01:57;27.10;69.00
45137;DHT22;30894;51.740;19.498;2023-07-20T14:04:23;27.50;68.70
45137;DHT22;30894;51.740;19.498;2023-07-20T14:06:51;27.70;68.70
45137;DHT22;30894;51.740;19.498;2023-07-20T14:09:17;27.90;68.70
45137;DHT22;30894;51.740;19.498;2023-07-20T14:11:43;27.90;68.90
45137;DHT22;30894;51.740;19.498;2023-07-20T14:14:09;28.20;68.90
45137;DHT22;30894;51.740;19.498;2023-07-20T14:16:36;28.40;68.70
45137;DHT22;30894;51.740;19.498;2023-07-20T14:19:03;28.60;68.40
45137;DHT22;30894;51.740;19.498;2023-07-20T14:21:30;28.50;68.30
45137;DHT22;30894;51.740;19.498;2023-07-20T14:23:56;28.40;68.60
45137;DHT22;30894;51.740;19.498;2023-07-20T14:26:24;28.20;69.10
45137;DHT22;30894;51.740;19.498;2023-07-20T14:28:50;28.20;69.20
45137;DHT22;30894;51.740;19.498;2023-07-20T14:31:16;27.90;69.60
45137;DHT22;30894;51.740;19.498;2023-07-20T14:33:42;28.00;70.20
45137;DHT22;30894;51.740;19.498;2023-07-20T14:36:09;28.00;69.60
45137;DHT22;30894;51.740;19.498;2023-07-20T14:38:35;28.20;69.40
45137;DHT22;30894;51.740;19.498;2023-07-20T14:41:02;28.10;69.30
45137;DHT22;30894;51.740;19.498;2023-07-20T14:43:28;27.90;69.70
45137;DHT22;30894;51.740;19.498;2023-07-20T14:45:55;27.80;70.00
45137;DHT22;30894;51.740;19.498;2023-07-20T14:48:21;27.80;69.80
45137;DHT22;30894;51.740;19.498;2023-07-20T14:50:47;27.70;69.80
45137;DHT22;30894;51.740;19.498;2023-07-20T14:53:15;27.70;70.10
45137;DHT22;30894;51.740;19.498;2023-07-20T14:55:41;27.60;70.40
45137;DHT22;30894;51.740;19.498;2023-07-20T14:58:08;27.60;70.40
45137;DHT22;30894;51.740;19.498;2023-07-20T15:00:34;27.50;70.90
45137;DHT22;30894;51.740;19.498;2023-07-20T15:03:00;27.10;71.50
45137;DHT22;30894;51.740;19.498;2023-07-20T15:05:27;26.90;72.30
45137;DHT22;30894;51.740;19.498;2023-07-20T15:07:53;26.60;73.00
45137;DHT22;30894;51.740;19.498;2023-07-20T15:10:20;26.50;73.60
45137;DHT22;30894;51.740;19.498;2023-07-20T15:12:46;26.50;73.70
45137;DHT22;30894;51.740;19.498;2023-07-20T15:15:13;26.30;73.90
45137;DHT22;30894;51.740;19.498;2023-07-20T15:17:41;26.40;74.00
45137;DHT22;30894;51.740;19.498;2023-07-20T15:20:11;26.70;73.70
45137;DHT22;30894;51.740;19.498;2023-07-20T15:22:38;26.90;73.40
45137;DHT22;30894;51.740;19.498;2023-07-20T15:25:11;26.80;73.10
45137;DHT22;30894;51.740;19.498;2023-07-20T15:27:38;26.80;73.40
45137;DHT22;30894;51.740;19.498;2023-07-20T15:30:06;26.60;73.50
45137;DHT22;30894;51.740;19.498;2023-07-20T15:32:32;26.50;73.80
45137;DHT22;30894;51.740;19.498;2023-07-20T15:34:58;26.30;74.10
45137;DHT22;30894;51.740;19.498;2023-07-20T15:37:24;25.80;74.80
45137;DHT22;30894;51.740;19.498;2023-07-20T15:39:55;25.60;76.00
45137;DHT22;30894;51.740;19.498;2023-07-20T15:42:21;25.70;76.20
45137;DHT22;30894;51.740;19.498;2023-07-20T15:44:48;25.70;75.90
45137;DHT22;30894;51.740;19.498;2023-07-20T15:47:15;25.80;76.40
45137;DHT22;30894;51.740;19.498;2023-07-20T15:49:41;25.90;76.30
45137;DHT22;30894;51.740;19.498;2023-07-20T15:52:08;26.00;76.50
45137;DHT22;30894;51.740;19.498;2023-07-20T15:54:37;26.10;76.90